Time;durP1;ratioP1;P1;durP2;ratioP2;P2;SDS_P1;SDS_P2;PMS_P1;PMS_P2;Temp;Humidity;BMP_temperature;BMP_pressure;BME280_temperature;BME280_humidity;BME280_pressure;Samples;Min_cycle;Max_cycle;Signal;HPM_P1;HPM_P2
2022/10/06 00:00:32;;;;;;;10.83;2.80;;;;;;;;;;5017103;28;20225;-86
2022/10/06 00:02:58;;;;;;;10.23;2.80;;;;;;;;;;5046942;28;20414;-86
2022/10/06 00:05:24;;;;;;;13.25;2.55;;;;;;;;;;5017735;28;20518;-86
2022/10/06 00:07:50;;;;;;;10.50;2.80;;;;;;;;;;5034627;28;20421;-85
2022/10/06 00:10:16;;;;;;;11.75;2.55;;;;;;;;;;5018349;28;20425;-87
2022/10/06 00:12:43;;;;;;;8.20;2.40;;;;;;;;;;5052230;28;20184;-86
2022/10/06 00:15:10;;;;;;;12.20;2.80;;;;;;;;;;5035234;28;20504;-86
2022/10/06 00:17:36;;;;;;;9.23;2.40;;;;;;;;;;5033912;28;20176;-86
2022/10/06 00:20:02;;;;;;;11.90;2.33;;;;;;;;;;5034725;28;20180;-85
2022/10/06 00:22:35;;;;;;;12.25;2.70;;;;;;;;;;5011333;28;20494;-86
2022/10/06 00:25:01;;;;;;;13.15;2.60;;;;;;;;;;5028895;28;20429;-81
2022/10/06 00:27:35;;;;;;;11.30;2.40;;;;;;;;;;5034880;28;20211;-82
2022/10/06 00:30:01;;;;;;;11.50;2.63;;;;;;;;;;5035921;28;20227;-81
2022/10/06 00:32:27;;;;;;;10.33;2.70;;;;;;;;;;5015265;28;20181;-81
2022/10/06 00:34:53;;;;;;;9.23;2.50;;;;;;;;;;5011216;28;20208;-78
2022/10/06 00:37:19;;;;;;;9.80;2.37;;;;;;;;;;5015126;28;20210;-78
2022/10/06 00:39:45;;;;;;;11.47;2.20;;;;;;;;;;5018303;28;20254;-78
2022/10/06 00:42:41;;;;;;;11.00;2.47;;;;;;;;;;5022330;28;20445;-78
2022/10/06 00:45:07;;;;;;;12.17;2.30;;;;;;;;;;5025609;28;20277;-78
2022/10/06 00:47:33;;;;;;;10.10;2.33;;;;;;;;;;5014740;28;20177;-78
2022/10/06 00:50:01;;;;;;;10.23;2.50;;;;;;;;;;4999160;28;20185;-78
2022/10/06 00:52:29;;;;;;;12.80;3.10;;;;;;;;;;5032418;28;20188;-78
2022/10/06 00:54:56;;;;;;;9.53;2.57;;;;;;;;;;5034420;28;20188;-78
2022/10/06 00:57:22;;;;;;;18.37;3.17;;;;;;;;;;5040056;28;20259;-87
2022/10/06 00:59:48;;;;;;;11.83;2.30;;;;;;;;;;5033957;28;20256;-86
2022/10/06 01:02:14;;;;;;;14.40;3.00;;;;;;;;;;5018458;28;20213;-86
2022/10/06 01:04:44;;;;;;;12.20;2.97;;;;;;;;;;5034363;28;20184;-86
2022/10/06 01:07:10;;;;;;;11.37;2.80;;;;;;;;;;5034638;28;20184;-77
2022/10/06 01:09:37;;;;;;;16.87;2.67;;;;;;;;;;5017926;28;20177;-77
2022/10/06 01:12:05;;;;;;;14.83;2.50;;;;;;;;;;5034246;28;20192;-78
2022/10/06 01:14:31;;;;;;;10.97;2.70;;;;;;;;;;5034429;28;20180;-77
2022/10/06 01:17:01;;;;;;;18.63;2.97;;;;;;;;;;5021922;28;20190;-77
2022/10/06 01:19:30;;;;;;;12.10;2.70;;;;;;;;;;5017620;28;20248;-77
2022/10/06 01:21:57;;;;;;;14.43;2.70;;;;;;;;;;5046894;28;20211;-78
2022/10/06 01:24:23;;;;;;;10.97;2.43;;;;;;;;;;5045808;28;20191;-78
2022/10/06 01:26:51;;;;;;;11.33;2.60;;;;;;;;;;5017508;28;20184;-77
2022/10/06 01:29:17;;;;;;;10.53;2.47;;;;;;;;;;5033677;28;20268;-77
2022/10/06 01:31:43;;;;;;;14.00;2.83;;;;;;;;;;5034460;28;20185;-78
2022/10/06 01:34:09;;;;;;;11.80;3.00;;;;;;;;;;5033636;28;20181;-78
2022/10/06 01:36:35;;;;;;;14.13;2.70;;;;;;;;;;5033714;28;20193;-78
2022/10/06 01:39:01;;;;;;;13.93;3.00;;;;;;;;;;5017301;28;20185;-77
2022/10/06 01:41:29;;;;;;;16.03;2.90;;;;;;;;;;5029249;28;20221;-80
2022/10/06 01:43:55;;;;;;;11.30;2.80;;;;;;;;;;5028638;28;20181;-79
2022/10/06 01:46:21;;;;;;;10.20;2.20;;;;;;;;;;5014022;28;20186;-79
2022/10/06 01:48:47;;;;;;;12.37;2.57;;;;;;;;;;5021642;28;20207;-80
2022/10/06 01:51:16;;;;;;;14.60;2.40;;;;;;;;;;5019192;28;20197;-80
2022/10/06 01:53:42;;;;;;;11.30;2.60;;;;;;;;;;5052630;28;20180;-79
2022/10/06 01:56:08;;;;;;;14.90;3.07;;;;;;;;;;5031453;28;20192;-79
2022/10/06 01:58:34;;;;;;;14.27;2.67;;;;;;;;;;5033386;28;20260;-79
2022/10/06 02:01:05;;;;;;;14.67;2.80;;;;;;;;;;5032754;28;20299;-80
2022/10/06 02:03:34;;;;;;;16.73;3.40;;;;;;;;;;5039129;28;20177;-79
2022/10/06 02:06:00;;;;;;;12.60;2.97;;;;;;;;;;5034710;28;20191;-79
2022/10/06 02:08:26;;;;;;;10.90;2.83;;;;;;;;;;5032153;28;20176;-79
2022/10/06 02:10:52;;;;;;;13.00;3.23;;;;;;;;;;5014518;28;20185;-79
2022/10/06 02:13:18;;;;;;;14.60;3.00;;;;;;;;;;5039158;28;20192;-85
2022/10/06 02:15:44;;;;;;;13.20;2.97;;;;;;;;;;5048172;28;20184;-85
2022/10/06 02:18:10;;;;;;;10.70;2.50;;;;;;;;;;5043726;28;20196;-86
2022/10/06 02:20:37;;;;;;;11.77;2.80;;;;;;;;;;5027531;28;20220;-85
2022/10/06 02:23:03;;;;;;;12.77;2.80;;;;;;;;;;5042952;28;20179;-86
2022/10/06 02:25:29;;;;;;;17.10;3.30;;;;;;;;;;5040334;28;20181;-86
2022/10/06 02:27:55;;;;;;;16.47;3.33;;;;;;;;;;5033650;28;20180;-79
2022/10/06 02:30:21;;;;;;;13.43;3.17;;;;;;;;;;5029924;28;20189;-86
2022/10/06 02:32:47;;;;;;;16.77;2.87;;;;;;;;;;5028593;28;20280;-86
2022/10/06 02:35:13;;;;;;;14.00;3.20;;;;;;;;;;5032030;28;20191;-86
2022/10/06 02:37:40;;;;;;;13.23;2.70;;;;;;;;;;5032718;28;20260;-86
2022/10/06 02:40:07;;;;;;;12.17;3.10;;;;;;;;;;5045746;28;20196;-87
2022/10/06 02:42:34;;;;;;;15.00;2.97;;;;;;;;;;5037141;28;20219;-86
2022/10/06 02:45:00;;;;;;;14.67;2.97;;;;;;;;;;5036948;28;20211;-86
2022/10/06 02:47:26;;;;;;;15.43;3.17;;;;;;;;;;5037449;28;20201;-81
2022/10/06 02:49:52;;;;;;;19.43;3.40;;;;;;;;;;5015704;28;20219;-86
2022/10/06 02:52:18;;;;;;;14.40;3.10;;;;;;;;;;5034985;28;20198;-86
2022/10/06 02:54:44;;;;;;;16.63;2.83;;;;;;;;;;5040118;28;20196;-87
2022/10/06 02:57:10;;;;;;;12.17;2.80;;;;;;;;;;5029311;28;20185;-87
2022/10/06 02:59:36;;;;;;;15.87;2.50;;;;;;;;;;5030450;28;20319;-87
2022/10/06 03:02:03;;;;;;;16.83;2.73;;;;;;;;;;5036316;28;20291;-87
2022/10/06 03:04:29;;;;;;;14.80;3.07;;;;;;;;;;5036384;28;20180;-79
2022/10/06 03:06:55;;;;;;;14.47;2.67;;;;;;;;;;5020548;28;20256;-78
2022/10/06 03:09:21;;;;;;;12.73;2.93;;;;;;;;;;5037579;28;20266;-79
2022/10/06 03:11:47;;;;;;;13.53;3.03;;;;;;;;;;5036577;28;20318;-79
2022/10/06 03:14:13;;;;;;;13.33;2.97;;;;;;;;;;5020246;28;20215;-78
2022/10/06 03:16:40;;;;;;;14.60;2.90;;;;;;;;;;5036506;28;20193;-78
2022/10/06 03:19:07;;;;;;;17.70;3.10;;;;;;;;;;5039051;28;20403;-78
2022/10/06 03:21:37;;;;;;;13.53;3.13;;;;;;;;;;5035861;28;20271;-80
2022/10/06 03:24:03;;;;;;;15.20;2.90;;;;;;;;;;5036256;28;20188;-80
2022/10/06 03:26:31;;;;;;;16.50;3.10;;;;;;;;;;5036021;28;20177;-81
2022/10/06 03:28:57;;;;;;;14.40;3.07;;;;;;;;;;5036028;28;20188;-81
2022/10/06 03:31:24;;;;;;;15.03;3.57;;;;;;;;;;5019158;28;20219;-87
2022/10/06 03:33:50;;;;;;;15.83;4.27;;;;;;;;;;5037890;28;20185;-86
2022/10/06 03:36:18;;;;;;;18.90;4.27;;;;;;;;;;5038902;28;20192;-87
2022/10/06 03:38:44;;;;;;;15.83;3.67;;;;;;;;;;5044723;28;20208;-88
2022/10/06 03:41:10;;;;;;;20.58;4.80;;;;;;;;;;5034192;28;20440;-88
2022/10/06 03:43:36;;;;;;;20.83;4.83;;;;;;;;;;5034689;28;20173;-88
2022/10/06 03:46:03;;;;;;;16.70;4.97;;;;;;;;;;5035932;28;20180;-87
2022/10/06 03:48:30;;;;;;;14.77;4.77;;;;;;;;;;5032153;28;20204;-86
2022/10/06 03:50:56;;;;;;;18.63;3.93;;;;;;;;;;5032401;28;20212;-85
2022/10/06 03:53:26;;;;;;;18.43;4.07;;;;;;;;;;5034814;28;20181;-77
2022/10/06 03:56:02;;;;;;;14.43;3.63;;;;;;;;;;5039683;28;20191;-78
2022/10/06 03:58:29;;;;;;;15.83;3.87;;;;;;;;;;5035485;28;20245;-78
2022/10/06 04:01:03;;;;;;;16.30;3.27;;;;;;;;;;5018878;28;20233;-78
2022/10/06 04:03:29;;;;;;;18.63;3.90;;;;;;;;;;5038470;28;20177;-78
2022/10/06 04:05:56;;;;;;;15.87;3.07;;;;;;;;;;5039037;28;20188;-79
2022/10/06 04:08:22;;;;;;;14.33;3.77;;;;;;;;;;5037491;28;20183;-78
2022/10/06 04:10:49;;;;;;;12.37;4.00;;;;;;;;;;5046030;28;20181;-82
2022/10/06 04:13:15;;;;;;;21.13;5.60;;;;;;;;;;5019718;28;20411;-80
2022/10/06 04:15:41;;;;;;;20.73;5.10;;;;;;;;;;5018904;28;20223;-81
2022/10/06 04:18:07;;;;;;;26.53;5.10;;;;;;;;;;5022192;28;20185;-82
2022/10/06 04:20:33;;;;;;;18.10;4.77;;;;;;;;;;5018615;28;20248;-82
2022/10/06 04:22:59;;;;;;;22.93;5.17;;;;;;;;;;5034944;28;20192;-81
2022/10/06 04:25:25;;;;;;;20.73;4.73;;;;;;;;;;5035858;28;20230;-81
2022/10/06 04:27:52;;;;;;;20.80;5.03;;;;;;;;;;5013460;28;20184;-87
2022/10/06 04:30:18;;;;;;;19.30;4.97;;;;;;;;;;5034597;28;20184;-85
2022/10/06 04:32:44;;;;;;;24.70;5.70;;;;;;;;;;5019897;28;20264;-88
2022/10/06 04:35:11;;;;;;;19.57;4.80;;;;;;;;;;5009161;28;20183;-87
2022/10/06 04:37:38;;;;;;;18.50;4.80;;;;;;;;;;5055056;28;20186;-87
2022/10/06 04:40:04;;;;;;;24.07;5.00;;;;;;;;;;5038788;28;20191;-87
2022/10/06 04:42:30;;;;;;;20.23;4.70;;;;;;;;;;5047089;28;20185;-86
2022/10/06 04:44:56;;;;;;;21.13;5.00;;;;;;;;;;5035078;28;20188;-81
2022/10/06 04:47:22;;;;;;;16.57;3.70;;;;;;;;;;5021052;28;20184;-81
2022/10/06 04:49:48;;;;;;;16.87;3.70;;;;;;;;;;5012403;28;20189;-82
2022/10/06 04:52:14;;;;;;;18.10;3.70;;;;;;;;;;5042101;28;20181;-81
2022/10/06 04:54:40;;;;;;;10.73;2.97;;;;;;;;;;5033445;28;20192;-82
2022/10/06 04:57:06;;;;;;;16.20;2.97;;;;;;;;;;5040893;28;20192;-81
2022/10/06 05:02:19;;;;;;;11.43;3.10;;;;;;;;;;5025782;28;20216;-82
2022/10/06 05:04:45;;;;;;;11.13;3.10;;;;;;;;;;5032373;28;20177;-81
2022/10/06 05:07:11;;;;;;;17.83;3.03;;;;;;;;;;5032436;28;20168;-82
2022/10/06 05:09:37;;;;;;;14.47;3.00;;;;;;;;;;5027461;28;20195;-82
2022/10/06 05:12:03;;;;;;;16.57;2.90;;;;;;;;;;5014920;28;20252;-82
2022/10/06 05:14:32;;;;;;;15.20;3.00;;;;;;;;;;5026554;28;20186;-82
2022/10/06 05:16:58;;;;;;;16.37;3.10;;;;;;;;;;5001825;28;20212;-86
2022/10/06 05:19:24;;;;;;;17.67;3.10;;;;;;;;;;5044936;28;20187;-86
2022/10/06 05:21:50;;;;;;;15.30;3.27;;;;;;;;;;5035187;28;20201;-87
2022/10/06 05:24:16;;;;;;;11.20;3.03;;;;;;;;;;5017955;28;20429;-87
2022/10/06 05:26:42;;;;;;;18.23;3.50;;;;;;;;;;5031143;28;20411;-87
2022/10/06 05:29:08;;;;;;;12.73;3.30;;;;;;;;;;5032207;28;20187;-86
2022/10/06 05:31:39;;;;;;;11.18;3.00;;;;;;;;;;5014734;28;20484;-86
2022/10/06 05:34:06;;;;;;;13.50;2.93;;;;;;;;;;5035318;28;20266;-86
2022/10/06 05:36:32;;;;;;;16.92;3.78;;;;;;;;;;5033539;28;20492;-86
2022/10/06 05:38:59;;;;;;;14.90;4.10;;;;;;;;;;5032999;28;20447;-82
2022/10/06 05:41:27;;;;;;;16.52;4.00;;;;;;;;;;5033109;28;20429;-82
2022/10/06 05:43:53;;;;;;;18.75;4.03;;;;;;;;;;5050589;28;20437;-82
2022/10/06 05:46:22;;;;;;;16.23;3.80;;;;;;;;;;5024985;28;20513;-82
2022/10/06 05:48:49;;;;;;;19.27;3.83;;;;;;;;;;5013358;28;20427;-82
2022/10/06 05:51:16;;;;;;;20.67;4.07;;;;;;;;;;5016946;28;20569;-82
2022/10/06 05:53:43;;;;;;;16.55;3.92;;;;;;;;;;5033176;28;20496;-82
2022/10/06 05:56:16;;;;;;;19.43;4.33;;;;;;;;;;5050602;28;20408;-82
2022/10/06 05:58:43;;;;;;;16.35;3.90;;;;;;;;;;5053607;28;20408;-82
2022/10/06 06:01:09;;;;;;;19.25;4.25;;;;;;;;;;5053094;28;20471;-82
2022/10/06 06:03:36;;;;;;;19.95;4.10;;;;;;;;;;5047782;28;20422;-82
2022/10/06 06:06:02;;;;;;;17.23;4.00;;;;;;;;;;5034131;28;20418;-82
2022/10/06 06:08:28;;;;;;;14.55;4.10;;;;;;;;;;5017651;28;20436;-82
2022/10/06 06:10:54;;;;;;;18.42;4.15;;;;;;;;;;5032733;28;20416;-83
2022/10/06 06:13:20;;;;;;;20.80;4.15;;;;;;;;;;5030450;28;20413;-82
2022/10/06 06:16:03;;;;;;;16.65;3.95;;;;;;;;;;5008914;28;20529;-82
2022/10/06 06:18:30;;;;;;;17.67;4.03;;;;;;;;;;5017806;28;20428;-82
2022/10/06 06:21:04;;;;;;;17.03;3.83;;;;;;;;;;5032171;28;20532;-82
2022/10/06 06:23:31;;;;;;;18.30;3.90;;;;;;;;;;5053490;28;20416;-80
2022/10/06 06:25:59;;;;;;;17.67;4.28;;;;;;;;;;5053220;28;20400;-80
2022/10/06 06:28:25;;;;;;;21.02;4.60;;;;;;;;;;5035837;28;20413;-80
2022/10/06 06:30:57;;;;;;;19.90;4.20;;;;;;;;;;5039173;28;20420;-80
2022/10/06 06:33:23;;;;;;;17.75;4.18;;;;;;;;;;5052064;28;20412;-80
2022/10/06 06:35:49;;;;;;;19.63;4.22;;;;;;;;;;5029763;28;20494;-80
2022/10/06 06:38:15;;;;;;;18.17;3.92;;;;;;;;;;5015542;28;20461;-80
2022/10/06 06:40:41;;;;;;;17.65;3.78;;;;;;;;;;5018044;28;20435;-82
2022/10/06 06:43:07;;;;;;;17.13;3.85;;;;;;;;;;5036791;28;20452;-82
2022/10/06 06:45:33;;;;;;;19.23;4.03;;;;;;;;;;5013875;28;20796;-82
2022/10/06 06:48:02;;;;;;;17.10;4.35;;;;;;;;;;5023474;28;20442;-81
2022/10/06 06:50:28;;;;;;;17.57;4.07;;;;;;;;;;5030459;28;20426;-81
2022/10/06 06:52:54;;;;;;;17.15;4.35;;;;;;;;;;5039896;28;20504;-82
2022/10/06 06:55:20;;;;;;;18.00;4.50;;;;;;;;;;5046035;28;20413;-82
2022/10/06 06:57:48;;;;;;;14.57;3.88;;;;;;;;;;5033410;28;20413;-87
2022/10/06 07:00:15;;;;;;;17.15;4.45;;;;;;;;;;5015984;28;20433;-86
2022/10/06 07:02:41;;;;;;;16.25;4.63;;;;;;;;;;5017852;28;20430;-87
2022/10/06 07:05:09;;;;;;;19.73;4.10;;;;;;;;;;5031368;28;20551;-88
2022/10/06 07:07:35;;;;;;;16.25;4.32;;;;;;;;;;5031975;28;20402;-88
2022/10/06 07:10:01;;;;;;;20.73;4.73;;;;;;;;;;5027682;28;20503;-88
2022/10/06 07:12:27;;;;;;;17.60;4.40;;;;;;;;;;5035002;28;20462;-87
2022/10/06 07:26:06;;;;;;;16.35;4.35;;;;;;;;;;5032659;28;20429;-80
2022/10/06 07:28:32;;;;;;;18.95;4.45;;;;;;;;;;5036134;28;20466;-80
2022/10/06 07:30:59;;;;;;;18.83;4.93;;;;;;;;;;5034632;28;20490;-86
2022/10/06 07:33:28;;;;;;;17.02;4.30;;;;;;;;;;5036496;28;20426;-87
2022/10/06 07:35:54;;;;;;;20.10;4.75;;;;;;;;;;5036155;28;20409;-85
2022/10/06 07:38:24;;;;;;;19.35;4.40;;;;;;;;;;5053394;28;20490;-87
2022/10/06 07:40:57;;;;;;;17.13;4.57;;;;;;;;;;5020158;28;20599;-87
2022/10/06 07:43:23;;;;;;;19.35;4.60;;;;;;;;;;5017008;28;20415;-87
2022/10/06 07:45:49;;;;;;;18.48;4.68;;;;;;;;;;5022672;28;20435;-86
2022/10/06 07:48:17;;;;;;;19.17;4.65;;;;;;;;;;5036037;28;20406;-81
2022/10/06 07:50:44;;;;;;;21.23;4.82;;;;;;;;;;5035629;28;20421;-81
2022/10/06 07:53:11;;;;;;;17.55;4.68;;;;;;;;;;5033708;28;20483;-81
2022/10/06 07:55:38;;;;;;;20.73;5.03;;;;;;;;;;5034919;28;20413;-80
2022/10/06 07:58:09;;;;;;;19.83;4.60;;;;;;;;;;5035146;28;20413;-81
2022/10/06 08:00:35;;;;;;;20.60;4.40;;;;;;;;;;5032548;28;20283;-81
2022/10/06 08:03:01;;;;;;;16.53;4.20;;;;;;;;;;5034611;28;20192;-88
2022/10/06 08:05:27;;;;;;;19.07;3.83;;;;;;;;;;5035427;28;20181;-87
2022/10/06 08:07:55;;;;;;;20.23;4.50;;;;;;;;;;5036087;28;20196;-87
2022/10/06 08:10:21;;;;;;;14.27;4.17;;;;;;;;;;5035603;28;20172;-88
2022/10/06 08:12:47;;;;;;;15.40;4.03;;;;;;;;;;5035031;28;20192;-87
2022/10/06 08:15:13;;;;;;;12.47;3.87;;;;;;;;;;5035377;28;20315;-81
2022/10/06 08:17:39;;;;;;;15.00;3.87;;;;;;;;;;5036890;28;20184;-81
2022/10/06 08:20:06;;;;;;;14.50;4.20;;;;;;;;;;5037915;28;20185;-87
2022/10/06 08:22:32;;;;;;;16.73;3.87;;;;;;;;;;5027233;28;20297;-81
2022/10/06 08:24:59;;;;;;;16.10;3.57;;;;;;;;;;5022161;28;20192;-82
2022/10/06 08:27:27;;;;;;;13.83;3.30;;;;;;;;;;5036444;28;20180;-82
2022/10/06 08:29:53;;;;;;;19.30;3.80;;;;;;;;;;5041114;28;20188;-82
2022/10/06 08:32:28;;;;;;;13.70;3.70;;;;;;;;;;5028519;28;20180;-87
2022/10/06 08:35:03;;;;;;;16.17;4.03;;;;;;;;;;5044132;28;20180;-88
2022/10/06 08:37:33;;;;;;;13.80;3.70;;;;;;;;;;5035081;28;20188;-79
2022/10/06 08:40:11;;;;;;;13.60;3.57;;;;;;;;;;5021533;28;20193;-79
2022/10/06 08:42:37;;;;;;;12.30;3.40;;;;;;;;;;5034278;28;20191;-80
2022/10/06 08:45:04;;;;;;;12.17;3.67;;;;;;;;;;5037629;28;20180;-80
2022/10/06 08:47:34;;;;;;;10.73;3.40;;;;;;;;;;5041759;28;20220;-78
2022/10/06 08:50:02;;;;;;;13.30;3.63;;;;;;;;;;5029386;28;20184;-78
2022/10/06 08:52:45;;;;;;;8.60;3.17;;;;;;;;;;5034219;28;20195;-78
2022/10/06 08:55:14;;;;;;;13.77;3.30;;;;;;;;;;5041118;28;20184;-80
2022/10/06 08:57:46;;;;;;;10.50;3.33;;;;;;;;;;5030986;28;20271;-80
2022/10/06 09:00:13;;;;;;;14.70;3.20;;;;;;;;;;5026015;28;20236;-80
2022/10/06 09:02:44;;;;;;;7.70;2.70;;;;;;;;;;5046851;28;20213;-81
2022/10/06 09:05:12;;;;;;;10.40;2.70;;;;;;;;;;5029008;28;20185;-81
2022/10/06 09:07:41;;;;;;;11.80;3.40;;;;;;;;;;5015815;28;20180;-81
2022/10/06 09:10:18;;;;;;;10.57;3.03;;;;;;;;;;5014736;28;20182;-87
2022/10/06 09:12:50;;;;;;;12.70;3.20;;;;;;;;;;5026356;28;20179;-79
2022/10/06 09:15:39;;;;;;;13.23;3.20;;;;;;;;;;5051173;28;20172;-78
2022/10/06 09:18:37;;;;;;;11.70;2.87;;;;;;;;;;5015201;28;20243;-78
2022/10/06 09:21:06;;;;;;;9.87;3.03;;;;;;;;;;5010773;28;20231;-79
2022/10/06 09:23:49;;;;;;;11.57;3.23;;;;;;;;;;5034813;28;20299;-79
2022/10/06 09:26:17;;;;;;;9.40;2.70;;;;;;;;;;5025015;28;20201;-87
2022/10/06 09:28:45;;;;;;;9.43;2.50;;;;;;;;;;5031236;28;20177;-87
2022/10/06 09:31:23;;;;;;;10.10;2.30;;;;;;;;;;5015153;28;20194;-87
2022/10/06 09:33:52;;;;;;;8.17;2.40;;;;;;;;;;5027954;28;20216;-87
2022/10/06 09:36:18;;;;;;;8.60;2.70;;;;;;;;;;5033704;28;20246;-87
2022/10/06 09:38:52;;;;;;;9.35;2.70;;;;;;;;;;5017864;28;20180;-86
2022/10/06 09:41:18;;;;;;;6.35;2.53;;;;;;;;;;5025099;28;20286;-87
2022/10/06 09:43:54;;;;;;;9.95;2.90;;;;;;;;;;5021271;28;20250;-80
2022/10/06 09:46:20;;;;;;;8.35;2.72;;;;;;;;;;5033396;28;20202;-80
2022/10/06 09:48:46;;;;;;;8.50;2.42;;;;;;;;;;5033561;28;20173;-80
2022/10/06 09:51:17;;;;;;;8.43;2.40;;;;;;;;;;5033447;28;20218;-81
2022/10/06 09:53:44;;;;;;;7.85;2.50;;;;;;;;;;5033452;28;20192;-81
2022/10/06 09:56:17;;;;;;;7.47;2.65;;;;;;;;;;5028554;28;20216;-80
2022/10/06 09:58:57;;;;;;;8.30;2.58;;;;;;;;;;5016738;28;20437;-80
2022/10/06 10:01:28;;;;;;;7.97;2.63;;;;;;;;;;5033842;28;20433;-87
2022/10/06 10:03:56;;;;;;;9.48;2.90;;;;;;;;;;5034160;28;20483;-86
2022/10/06 10:06:25;;;;;;;8.45;2.20;;;;;;;;;;5032759;28;20169;-87
2022/10/06 10:08:51;;;;;;;9.00;2.80;;;;;;;;;;5033001;28;20424;-87
2022/10/06 10:14:15;;;;;;;10.35;2.60;;;;;;;;;;5032966;28;20416;-87
2022/10/06 10:16:41;;;;;;;8.82;2.50;;;;;;;;;;5032672;28;20471;-82
2022/10/06 10:19:21;;;;;;;6.95;2.60;;;;;;;;;;5015941;28;20432;-82
2022/10/06 10:21:47;;;;;;;8.05;2.75;;;;;;;;;;5032771;28;20208;-82
2022/10/06 10:24:17;;;;;;;7.35;2.60;;;;;;;;;;5016590;28;20488;-82
2022/10/06 10:26:56;;;;;;;8.38;2.30;;;;;;;;;;5032384;28;20476;-82
2022/10/06 10:29:31;;;;;;;6.50;2.10;;;;;;;;;;5038915;28;20179;-82
2022/10/06 10:32:11;;;;;;;7.90;2.40;;;;;;;;;;5044323;28;20420;-82
2022/10/06 10:34:43;;;;;;;9.57;2.45;;;;;;;;;;5032851;28;20505;-87
2022/10/06 10:37:11;;;;;;;8.85;2.60;;;;;;;;;;5032419;28;20412;-87
2022/10/06 10:39:43;;;;;;;7.75;2.63;;;;;;;;;;5039411;28;20416;-87
2022/10/06 10:42:14;;;;;;;11.85;3.00;;;;;;;;;;5052923;28;20470;-87
2022/10/06 10:44:48;;;;;;;7.95;2.53;;;;;;;;;;5036384;28;20443;-86
2022/10/06 10:47:21;;;;;;;8.23;2.50;;;;;;;;;;5031299;28;20426;-87
2022/10/06 10:49:50;;;;;;;9.40;2.60;;;;;;;;;;5036074;28;20433;-87
2022/10/06 10:52:20;;;;;;;8.93;2.58;;;;;;;;;;5033158;28;20406;-87
2022/10/06 10:54:46;;;;;;;10.80;2.88;;;;;;;;;;5032345;28;20532;-88
2022/10/06 10:57:15;;;;;;;8.00;2.70;;;;;;;;;;5037069;28;20431;-87
2022/10/06 10:59:51;;;;;;;9.75;2.60;;;;;;;;;;5031488;28;20441;-87
2022/10/06 11:02:17;;;;;;;8.43;2.70;;;;;;;;;;5038270;28;20562;-88
2022/10/06 11:04:48;;;;;;;9.60;3.03;;;;;;;;;;5036462;28;20413;-87
2022/10/06 11:07:19;;;;;;;8.00;2.65;;;;;;;;;;5037084;28;20412;-87
2022/10/06 11:10:01;;;;;;;7.90;2.70;;;;;;;;;;5021646;28;20470;-88
2022/10/06 11:12:33;;;;;;;9.52;2.47;;;;;;;;;;5052692;28;20414;-87
2022/10/06 11:15:05;;;;;;;8.40;2.40;;;;;;;;;;5043000;23;20469;-81
2022/10/06 11:17:42;;;;;;;7.13;2.20;;;;;;;;;;5036772;28;20404;-81
2022/10/06 11:20:11;;;;;;;8.73;2.38;;;;;;;;;;5027210;28;20442;-81
2022/10/06 11:22:44;;;;;;;9.00;2.40;;;;;;;;;;5049414;28;20445;-81
2022/10/06 11:25:31;;;;;;;9.75;2.80;;;;;;;;;;5032989;28;20429;-87
2022/10/06 11:28:16;;;;;;;10.73;2.38;;;;;;;;;;5034444;28;20235;-89
2022/10/06 11:31:02;;;;;;;9.63;2.28;;;;;;;;;;5032574;28;20184;-86
2022/10/06 11:33:39;;;;;;;11.23;2.55;;;;;;;;;;5022491;28;20189;-86
2022/10/06 11:36:08;;;;;;;7.63;2.50;;;;;;;;;;5025950;28;20447;-86
2022/10/06 11:38:39;;;;;;;7.97;2.20;;;;;;;;;;5034194;28;20508;-85
2022/10/06 11:41:15;;;;;;;9.35;2.10;;;;;;;;;;5033786;28;20516;-82
2022/10/06 11:43:59;;;;;;;9.00;2.50;;;;;;;;;;5032642;28;20422;-82
2022/10/06 11:46:28;;;;;;;9.27;2.42;;;;;;;;;;5027309;28;20433;-82
2022/10/06 11:49:14;;;;;;;9.27;2.30;;;;;;;;;;5041048;28;20178;-82
2022/10/06 11:51:40;;;;;;;9.32;2.53;;;;;;;;;;5049404;28;20523;-82
2022/10/06 11:54:26;;;;;;;7.25;2.38;;;;;;;;;;5019122;28;20489;-82
2022/10/06 11:56:52;;;;;;;9.63;2.43;;;;;;;;;;5034673;28;20412;-84
2022/10/06 11:59:30;;;;;;;8.75;2.45;;;;;;;;;;5019207;28;20188;-84
2022/10/06 12:01:56;;;;;;;6.30;2.17;;;;;;;;;;5035339;28;20316;-86
2022/10/06 12:04:25;;;;;;;9.70;2.20;;;;;;;;;;5019468;28;20173;-85
2022/10/06 12:06:52;;;;;;;9.30;2.20;;;;;;;;;;5035366;28;20185;-85
2022/10/06 12:09:30;;;;;;;8.70;2.50;;;;;;;;;;5035031;28;20417;-86
2022/10/06 12:12:22;;;;;;;12.40;2.20;;;;;;;;;;5019790;28;20271;-86
2022/10/06 12:14:55;;;;;;;8.03;2.10;;;;;;;;;;5016176;28;20315;-79
2022/10/06 12:17:21;;;;;;;6.97;2.03;;;;;;;;;;5025721;28;20206;-79
2022/10/06 12:19:47;;;;;;;5.33;1.80;;;;;;;;;;5027920;28;20178;-79
2022/10/06 12:22:21;;;;;;;7.43;2.00;;;;;;;;;;5025821;28;20269;-79
2022/10/06 12:24:53;;;;;;;8.83;2.07;;;;;;;;;;5035050;28;20172;-79
2022/10/06 12:27:19;;;;;;;8.60;1.80;;;;;;;;;;5027703;28;20185;-80
2022/10/06 12:29:57;;;;;;;6.37;1.90;;;;;;;;;;5024517;28;20181;-84
2022/10/06 12:32:23;;;;;;;7.87;2.10;;;;;;;;;;5042533;28;20238;-82
2022/10/06 12:34:55;;;;;;;7.80;1.93;;;;;;;;;;5038058;28;20180;-82
2022/10/06 12:37:39;;;;;;;7.23;2.10;;;;;;;;;;5038008;28;20183;-82
2022/10/06 12:40:24;;;;;;;7.47;2.40;;;;;;;;;;5034089;28;20437;-81
2022/10/06 12:42:52;;;;;;;9.80;2.47;;;;;;;;;;5035068;28;20428;-81
2022/10/06 12:45:18;;;;;;;9.15;2.60;;;;;;;;;;5045860;28;20431;-82
2022/10/06 12:47:46;;;;;;;9.43;2.67;;;;;;;;;;5033236;28;20508;-85
2022/10/06 12:50:12;;;;;;;9.98;2.75;;;;;;;;;;5029776;28;20485;-85
2022/10/06 12:53:04;;;;;;;9.57;2.40;;;;;;;;;;5054027;28;20412;-85
2022/10/06 12:55:47;;;;;;;12.15;2.50;;;;;;;;;;5054922;28;20400;-85
2022/10/06 12:58:18;;;;;;;8.90;2.60;;;;;;;;;;5034913;28;20413;-85
2022/10/06 13:00:44;;;;;;;7.33;2.00;;;;;;;;;;5033212;28;20284;-86
2022/10/06 13:03:16;;;;;;;7.33;2.03;;;;;;;;;;5033919;28;20184;-80
2022/10/06 13:05:49;;;;;;;9.23;2.40;;;;;;;;;;5028957;28;20418;-80
2022/10/06 13:08:22;;;;;;;8.80;2.47;;;;;;;;;;5032595;28;20432;-80
2022/10/06 13:10:48;;;;;;;8.38;2.38;;;;;;;;;;5032021;28;20418;-80
2022/10/06 13:13:23;;;;;;;11.37;2.60;;;;;;;;;;5034149;28;20235;-81
2022/10/06 13:15:49;;;;;;;7.97;2.30;;;;;;;;;;5028398;28;20183;-80
2022/10/06 13:18:15;;;;;;;9.82;2.40;;;;;;;;;;5033093;28;20413;-80
2022/10/06 13:20:41;;;;;;;9.25;2.38;;;;;;;;;;5032932;28;20468;-79
2022/10/06 13:23:13;;;;;;;7.68;2.40;;;;;;;;;;5041878;28;20409;-78
2022/10/06 13:25:41;;;;;;;9.05;2.83;;;;;;;;;;5032673;28;20429;-79
2022/10/06 13:28:18;;;;;;;8.63;2.33;;;;;;;;;;5032968;28;20401;-78
2022/10/06 13:30:48;;;;;;;9.33;2.40;;;;;;;;;;5032985;28;21013;-79
2022/10/06 13:33:14;;;;;;;7.55;2.22;;;;;;;;;;5032472;28;20452;-79
2022/10/06 13:35:41;;;;;;;8.52;2.40;;;;;;;;;;5018147;28;20433;-79
2022/10/06 13:38:07;;;;;;;8.77;2.17;;;;;;;;;;5045017;28;20516;-81
2022/10/06 13:40:33;;;;;;;10.10;2.10;;;;;;;;;;5024493;28;20435;-80
2022/10/06 13:43:00;;;;;;;8.50;2.20;;;;;;;;;;5024943;28;20460;-81
2022/10/06 13:45:26;;;;;;;8.43;2.30;;;;;;;;;;5031686;28;20419;-80
2022/10/06 13:48:02;;;;;;;7.97;2.20;;;;;;;;;;5031836;28;20425;-80
2022/10/06 13:50:28;;;;;;;6.77;2.03;;;;;;;;;;5031427;28;20512;-80
2022/10/06 13:52:54;;;;;;;6.15;2.10;;;;;;;;;;5041004;28;20421;-79
2022/10/06 13:55:24;;;;;;;8.80;2.40;;;;;;;;;;5013420;28;20453;-79
2022/10/06 13:58:00;;;;;;;7.57;2.00;;;;;;;;;;5033142;28;20262;-79
2022/10/06 14:00:31;;;;;;;7.40;1.90;;;;;;;;;;5037884;28;20188;-79
2022/10/06 14:03:04;;;;;;;6.07;2.00;;;;;;;;;;5015171;28;20231;-79
2022/10/06 14:05:39;;;;;;;8.57;2.38;;;;;;;;;;5029982;28;20433;-79
2022/10/06 14:08:11;;;;;;;9.77;2.57;;;;;;;;;;5028315;28;20418;-79
2022/10/06 14:10:41;;;;;;;6.73;2.00;;;;;;;;;;5012806;28;20430;-82
2022/10/06 14:13:15;;;;;;;8.27;2.30;;;;;;;;;;5027716;28;20536;-82
2022/10/06 14:15:51;;;;;;;9.27;2.22;;;;;;;;;;5031816;28;20441;-82
2022/10/06 14:18:36;;;;;;;7.20;2.10;;;;;;;;;;5028422;28;20428;-81
2022/10/06 14:21:21;;;;;;;7.70;2.03;;;;;;;;;;5032374;28;20468;-82
2022/10/06 14:23:48;;;;;;;6.27;2.00;;;;;;;;;;5031368;28;20412;-82
2022/10/06 14:26:18;;;;;;;6.07;2.00;;;;;;;;;;5031604;28;20415;-78
2022/10/06 14:28:46;;;;;;;6.78;2.13;;;;;;;;;;5016519;28;20401;-78
2022/10/06 14:31:12;;;;;;;5.72;2.03;;;;;;;;;;5033088;28;20413;-79
2022/10/06 14:33:38;;;;;;;7.80;2.10;;;;;;;;;;5021105;28;20470;-79
2022/10/06 14:36:04;;;;;;;6.50;2.00;;;;;;;;;;5030853;28;20464;-79
2022/10/06 14:38:30;;;;;;;6.75;2.00;;;;;;;;;;5033197;28;20409;-80
2022/10/06 14:41:00;;;;;;;7.97;2.30;;;;;;;;;;5012249;28;20897;-79
2022/10/06 14:43:26;;;;;;;5.95;1.83;;;;;;;;;;5027246;28;21382;-82
2022/10/06 14:45:52;;;;;;;8.55;2.10;;;;;;;;;;5016212;28;20479;-82
2022/10/06 14:48:18;;;;;;;7.35;1.90;;;;;;;;;;5046640;28;20412;-82
2022/10/06 14:50:45;;;;;;;8.52;2.17;;;;;;;;;;5053232;28;20411;-82
2022/10/06 14:53:13;;;;;;;6.47;1.90;;;;;;;;;;5038091;28;20450;-82
2022/10/06 14:55:39;;;;;;;7.13;2.10;;;;;;;;;;5032359;28;20414;-82
2022/10/06 14:58:05;;;;;;;8.23;2.25;;;;;;;;;;5031892;28;20405;-82
2022/10/06 15:00:31;;;;;;;7.13;1.90;;;;;;;;;;5042770;28;20428;-85
2022/10/06 15:02:57;;;;;;;5.28;1.88;;;;;;;;;;5035876;28;20433;-86